Time;durP1;ratioP1;P1;durP2;ratioP2;P2;SDS_P1;SDS_P2;PMS_P1;PMS_P2;Temp;Humidity;BMP_temperature;BMP_pressure;BME280_temperature;BME280_humidity;BME280_pressure;Samples;Min_cycle;Max_cycle;Signal;HPM_P1;HPM_P2
2023/01/24 00:00:53;;;;;;;17.48;13.45;;;;;;;2.34;100.00;104063.91;4931145;29;20075;-82
2023/01/24 00:03:21;;;;;;;19.40;13.73;;;;;;;2.35;100.00;104067.44;4921906;29;20082;-83
2023/01/24 00:05:49;;;;;;;17.15;12.52;;;;;;;2.34;100.00;104061.31;4942415;29;20059;-81
2023/01/24 00:08:27;;;;;;;18.75;13.38;;;;;;;2.33;100.00;104056.88;4904729;29;20974;-82
2023/01/24 00:11:03;;;;;;;16.95;12.90;;;;;;;2.34;100.00;104065.59;4910436;29;20485;-81
2023/01/24 00:13:30;;;;;;;17.85;12.35;;;;;;;2.34;100.00;104058.72;4935181;29;20520;-82
2023/01/24 00:16:19;;;;;;;20.33;14.63;;;;;;;2.34;100.00;104055.16;4924513;29;20055;-82
2023/01/24 00:18:48;;;;;;;19.38;14.23;;;;;;;2.31;100.00;104057.53;4932448;29;20048;-81
2023/01/24 00:21:24;;;;;;;17.08;13.40;;;;;;;2.32;100.00;104054.13;4927605;29;20083;-82
2023/01/24 00:23:54;;;;;;;17.95;13.95;;;;;;;2.31;100.00;104057.53;4902593;29;20515;-82
2023/01/24 00:26:23;;;;;;;20.00;13.70;;;;;;;2.30;100.00;104053.09;4902604;29;20055;-82
2023/01/24 00:28:51;;;;;;;20.20;14.60;;;;;;;2.31;100.00;104050.63;4940252;29;20059;-82
2023/01/24 00:31:19;;;;;;;22.00;14.25;;;;;;;2.32;100.00;104051.53;4920998;29;20054;-82
2023/01/24 00:33:47;;;;;;;22.45;15.02;;;;;;;2.31;100.00;104053.22;4923774;29;20468;-81
2023/01/24 00:36:15;;;;;;;20.05;14.60;;;;;;;2.30;100.00;104059.19;4928359;29;20059;-82
2023/01/24 00:38:42;;;;;;;18.75;13.70;;;;;;;2.28;100.00;104050.34;4935401;29;20050;-82
2023/01/24 00:41:10;;;;;;;22.80;15.57;;;;;;;2.29;100.00;104056.47;4922552;28;20075;-83
2023/01/24 00:43:40;;;;;;;15.70;12.15;;;;;;;2.26;100.00;104049.28;4931433;29;21075;-82
2023/01/24 00:46:09;;;;;;;23.75;15.20;;;;;;;2.25;100.00;104044.88;4916457;29;20066;-83
2023/01/24 00:48:36;;;;;;;23.05;16.10;;;;;;;2.25;100.00;104044.88;4951905;29;20058;-83
2023/01/24 00:51:04;;;;;;;22.40;15.02;;;;;;;2.26;100.00;104045.78;4930442;29;20056;-82
2023/01/24 00:53:32;;;;;;;22.35;15.55;;;;;;;2.27;100.00;104042.38;4933184;29;20487;-83
2023/01/24 00:55:59;;;;;;;22.27;15.20;;;;;;;2.27;100.00;104045.00;4915839;29;20426;-83
2023/01/24 00:58:26;;;;;;;25.48;15.63;;;;;;;2.27;100.00;104035.53;4953692;29;20066;-83
2023/01/24 01:00:56;;;;;;;22.13;14.63;;;;;;;2.28;100.00;104039.03;4952539;29;20059;-82
2023/01/24 01:03:23;;;;;;;21.45;15.85;;;;;;;2.28;100.00;104039.03;4937075;29;20059;-82
2023/01/24 01:05:57;;;;;;;21.55;15.13;;;;;;;2.27;100.00;104027.72;4935741;29;20361;-84
2023/01/24 01:08:25;;;;;;;23.63;15.95;;;;;;;2.28;100.00;104023.41;4918843;29;20055;-82
2023/01/24 01:10:52;;;;;;;23.23;16.30;;;;;;;2.29;100.00;104035.66;4904339;28;20055;-80
2023/01/24 01:13:20;;;;;;;22.48;16.25;;;;;;;2.29;100.00;104028.75;4943143;29;20425;-81
2023/01/24 01:15:47;;;;;;;21.75;15.40;;;;;;;2.28;100.00;104032.13;4926975;29;20056;-80
2023/01/24 01:18:16;;;;;;;20.80;15.30;;;;;;;2.29;100.00;104026.16;4924814;29;20048;-82
2023/01/24 01:20:50;;;;;;;25.75;17.30;;;;;;;2.29;100.00;104025.25;4920842;29;20059;-83
2023/01/24 01:23:17;;;;;;;24.05;16.00;;;;;;;2.31;100.00;104029.81;4931688;29;20047;-81
2023/01/24 01:25:45;;;;;;;22.48;16.25;;;;;;;2.32;100.00;104030.72;4938250;29;20043;-82
2023/01/24 01:28:12;;;;;;;23.85;17.00;;;;;;;2.32;100.00;104030.72;4913790;29;20048;-81
2023/01/24 01:30:39;;;;;;;22.35;15.98;;;;;;;2.33;100.00;104029.94;4939816;29;20513;-82
2023/01/24 01:33:07;;;;;;;24.00;16.42;;;;;;;2.34;100.00;104034.34;4925034;29;20077;-81
2023/01/24 01:35:34;;;;;;;22.77;16.40;;;;;;;2.34;100.00;104040.50;4925859;29;20047;-81
2023/01/24 01:38:01;;;;;;;26.52;17.23;;;;;;;2.36;100.00;104031.88;4917262;29;20047;-80
2023/01/24 01:40:29;;;;;;;24.55;16.65;;;;;;;2.38;100.00;104035.53;4965741;28;20425;-82
2023/01/24 01:42:56;;;;;;;23.38;16.40;;;;;;;2.38;100.00;104038.13;4910204;29;20055;-82
2023/01/24 01:45:34;;;;;;;25.95;17.27;;;;;;;2.38;100.00;104041.66;4919034;29;20055;-82
2023/01/24 01:48:15;;;;;;;27.27;17.73;;;;;;;2.39;100.00;104042.59;4941384;28;20154;-82
2023/01/24 01:50:49;;;;;;;27.23;18.23;;;;;;;2.38;100.00;104040.75;4949860;29;20059;-84
2023/01/24 01:53:17;;;;;;;27.73;18.98;;;;;;;2.39;100.00;104047.78;4951385;29;20059;-82
2023/01/24 01:55:49;;;;;;;29.23;19.70;;;;;;;2.39;100.00;104045.19;4953247;29;20046;-82
2023/01/24 01:58:17;;;;;;;26.52;17.63;;;;;;;2.38;100.00;104041.66;4909066;29;20059;-83
2023/01/24 02:00:50;;;;;;;28.75;18.75;;;;;;;2.40;100.00;104044.38;4921761;29;20058;-82
2023/01/24 02:03:39;;;;;;;26.42;18.48;;;;;;;2.39;100.00;104039.97;4937019;29;20520;-82
2023/01/24 02:06:28;;;;;;;27.65;18.00;;;;;;;2.39;100.00;104038.28;4960166;28;20055;-83
2023/01/24 02:08:57;;;;;;;33.65;18.65;;;;;;;2.39;100.00;104039.97;4961835;28;20055;-84
2023/01/24 02:11:39;;;;;;;30.95;18.42;;;;;;;2.40;100.00;104034.91;4940743;29;20532;-82
2023/01/24 02:17:00;;;;;;;27.92;18.35;;;;;;;2.41;100.00;104041.03;4944930;29;20047;-83
2023/01/24 02:19:30;;;;;;;28.63;18.77;;;;;;;2.42;100.00;104032.41;4949831;29;20417;-83
2023/01/24 02:22:09;;;;;;;30.10;19.35;;;;;;;2.42;100.00;104024.59;4937717;29;20051;-83
2023/01/24 02:24:43;;;;;;;26.73;18.30;;;;;;;2.41;100.00;104028.00;4941570;29;20067;-83
2023/01/24 02:27:10;;;;;;;27.70;19.23;;;;;;;2.42;100.00;104030.75;4938751;29;20062;-83
2023/01/24 02:29:38;;;;;;;26.15;18.25;;;;;;;2.43;100.00;104029.06;4908541;29;20059;-83
2023/01/24 02:32:07;;;;;;;26.73;19.77;;;;;;;2.43;100.00;104021.25;4935041;29;20059;-83
2023/01/24 02:34:35;;;;;;;28.05;18.92;;;;;;;2.42;100.00;104020.34;4947026;29;20054;-81
2023/01/24 02:37:07;;;;;;;26.85;17.17;;;;;;;2.42;100.00;104035.97;4907474;29;20055;-81
2023/01/24 02:40:01;;;;;;;31.38;18.00;;;;;;;2.42;100.00;104037.63;4951187;28;20058;-82
2023/01/24 02:42:34;;;;;;;24.13;17.98;;;;;;;2.41;100.00;104036.72;4946503;28;20051;-82
2023/01/24 02:45:10;;;;;;;30.05;18.38;;;;;;;2.41;100.00;104035.81;4899401;29;20055;-82
2023/01/24 02:47:43;;;;;;;28.35;19.40;;;;;;;2.41;100.00;104031.50;4949356;28;20206;-82
2023/01/24 02:50:11;;;;;;;28.92;18.70;;;;;;;2.42;100.00;104035.03;4919639;28;20047;-82
2023/01/24 02:55:25;;;;;;;26.23;19.25;;;;;;;2.39;100.00;104042.59;4935758;28;20054;-82
2023/01/24 02:58:05;;;;;;;29.83;19.27;;;;;;;2.38;100.00;104035.53;4944030;28;20058;-82
2023/01/24 03:00:37;;;;;;;33.35;18.40;;;;;;;2.38;100.00;104027.72;4927692;28;20049;-81
2023/01/24 03:03:07;;;;;;;29.58;18.90;;;;;;;2.37;100.00;104025.91;4941290;28;20066;-82
2023/01/24 03:08:27;;;;;;;25.38;17.85;;;;;;;2.34;100.00;104024.88;4969068;28;20046;-82
2023/01/24 03:10:58;;;;;;;27.65;18.30;;;;;;;2.36;100.00;104024.09;4929706;29;20058;-82
2023/01/24 03:35:55;;;;;;;30.15;20.27;;;;;;;2.40;100.00;104031.38;4956752;28;20055;-81
2023/01/24 03:41:12;;;;;;;25.60;18.05;;;;;;;2.35;100.00;104028.38;4939621;29;20051;-82
2023/01/24 03:43:43;;;;;;;18.65;14.05;;;;;;;2.32;100.00;104026.41;4937858;29;20055;-82
2023/01/24 03:46:11;;;;;;;21.15;13.93;;;;;;;2.30;100.00;104027.97;4914093;29;20085;-81
2023/01/24 03:48:48;;;;;;;15.70;12.07;;;;;;;2.30;100.00;104029.66;4923654;29;20062;-80
2023/01/24 03:54:03;;;;;;;16.90;11.65;;;;;;;2.29;100.00;104033.97;4953193;28;20493;-81
2023/01/24 03:56:42;;;;;;;15.07;11.38;;;;;;;2.31;100.00;104035.00;4963551;28;20472;-81
2023/01/24 03:59:10;;;;;;;15.88;12.65;;;;;;;2.31;100.00;104042.81;4952798;28;20796;-81
2023/01/24 04:01:39;;;;;;;15.88;12.63;;;;;;;2.32;100.00;104036.81;4952171;28;20055;-82
2023/01/24 04:04:17;;;;;;;19.55;13.68;;;;;;;2.34;100.00;104039.56;4908540;29;20047;-81
2023/01/24 04:06:45;;;;;;;20.63;13.38;;;;;;;2.34;100.00;104045.69;4937405;28;20420;-80
2023/01/24 04:09:14;;;;;;;21.70;14.80;;;;;;;2.34;100.00;104050.91;4925944;29;20047;-82
2023/01/24 04:11:43;;;;;;;18.05;14.00;;;;;;;2.35;100.00;104046.59;4934347;29;20056;-81
2023/01/24 04:14:14;;;;;;;20.08;13.32;;;;;;;2.36;100.00;104047.50;4951291;29;20560;-81
2023/01/24 04:17:02;;;;;;;18.23;13.18;;;;;;;2.36;100.00;104052.72;4934236;29;20708;-81
2023/01/24 04:19:38;;;;;;;21.33;14.25;;;;;;;2.37;100.00;104054.56;4923479;28;20054;-82
2023/01/24 04:22:08;;;;;;;17.13;13.05;;;;;;;2.37;100.00;104054.56;4956251;28;20062;-82
2023/01/24 04:24:37;;;;;;;19.27;13.38;;;;;;;2.34;100.00;104061.31;4936194;28;20069;-82
2023/01/24 04:27:07;;;;;;;17.55;13.32;;;;;;;2.34;100.00;104058.72;4925401;28;20057;-82
2023/01/24 04:29:51;;;;;;;19.25;14.07;;;;;;;2.34;100.00;104056.13;4943660;28;20065;-81
2023/01/24 04:32:19;;;;;;;23.50;15.75;;;;;;;2.33;100.00;104048.16;4961442;28;20043;-82
2023/01/24 04:35:00;;;;;;;21.83;17.02;;;;;;;2.33;100.00;104051.66;4925158;29;20055;-81
2023/01/24 04:37:48;;;;;;;23.83;17.55;;;;;;;2.33;100.00;104049.06;4947924;28;20058;-82
2023/01/24 04:40:23;;;;;;;19.15;14.50;;;;;;;2.34;100.00;104045.69;4945105;29;20047;-83
2023/01/24 04:42:51;;;;;;;21.80;16.15;;;;;;;2.36;100.00;104057.91;4951977;28;20397;-82
2023/01/24 04:45:19;;;;;;;20.55;15.00;;;;;;;2.37;100.00;104054.56;4923793;29;20677;-82
2023/01/24 04:47:47;;;;;;;18.88;15.38;;;;;;;2.35;100.00;104046.59;4909831;28;20055;-81
2023/01/24 04:50:14;;;;;;;22.75;16.90;;;;;;;2.36;100.00;104048.41;4899717;28;21699;-83
2023/01/24 04:52:42;;;;;;;23.40;14.82;;;;;;;2.36;100.00;104053.63;4954377;29;20047;-83
2023/01/24 04:55:10;;;;;;;19.85;15.10;;;;;;;2.38;100.00;104062.47;4950318;28;20057;-83
2023/01/24 04:57:38;;;;;;;24.50;17.35;;;;;;;2.39;100.00;104053.00;4946835;28;20059;-83
2023/01/24 05:00:10;;;;;;;24.67;18.42;;;;;;;2.39;100.00;104053.00;4939058;29;20047;-82
2023/01/24 05:02:37;;;;;;;25.85;18.75;;;;;;;2.39;100.00;104042.59;4913200;28;20047;-82
2023/01/24 05:05:06;;;;;;;20.65;15.70;;;;;;;2.38;100.00;104052.06;4954639;28;20054;-83
2023/01/24 05:07:34;;;;;;;20.75;14.65;;;;;;;2.37;100.00;104052.84;4928710;28;20050;-82
2023/01/24 05:10:07;;;;;;;23.30;16.35;;;;;;;2.36;100.00;104052.72;4954434;28;20062;-82
2023/01/24 05:12:37;;;;;;;21.83;16.88;;;;;;;2.35;100.00;104046.59;4941015;28;20043;-83
2023/01/24 05:15:10;;;;;;;19.50;15.38;;;;;;;2.32;100.00;104042.03;4953139;28;20065;-84
2023/01/24 05:17:37;;;;;;;19.30;13.35;;;;;;;2.31;100.00;104045.41;4955825;28;20412;-83
2023/01/24 05:20:06;;;;;;;18.13;13.70;;;;;;;2.30;100.00;104040.97;4949726;28;20066;-83
2023/01/24 05:22:33;;;;;;;22.63;15.75;;;;;;;2.31;100.00;104048.03;4922013;29;20288;-81
2023/01/24 05:25:01;;;;;;;19.58;14.65;;;;;;;2.30;100.00;104042.66;4943466;28;20054;-82
2023/01/24 05:27:28;;;;;;;19.40;14.32;;;;;;;2.28;100.00;104045.13;4949206;28;20055;-82
2023/01/24 05:30:01;;;;;;;19.77;15.32;;;;;;;2.28;100.00;104039.03;4941719;28;20054;-81
2023/01/24 05:32:30;;;;;;;19.00;13.85;;;;;;;2.27;100.00;104024.19;4929204;28;20464;-82
2023/01/24 05:34:59;;;;;;;20.67;15.13;;;;;;;2.26;100.00;104041.47;4949289;28;20744;-82
2023/01/24 05:37:27;;;;;;;18.27;14.25;;;;;;;2.25;100.00;104044.88;4928414;28;20054;-83
2023/01/24 05:39:55;;;;;;;18.38;13.07;;;;;;;2.24;100.00;104042.13;4933288;29;20051;-82
2023/01/24 05:42:22;;;;;;;16.98;13.27;;;;;;;2.23;100.00;104041.22;4913871;29;20047;-82
2023/01/24 05:44:53;;;;;;;17.83;12.93;;;;;;;2.21;100.00;104041.84;4927123;28;20048;-83
2023/01/24 05:47:21;;;;;;;17.80;13.57;;;;;;;2.19;100.00;104052.13;4905179;29;20071;-82
2023/01/24 05:49:49;;;;;;;18.73;13.40;;;;;;;2.20;100.00;104056.56;4907927;29;20056;-83
2023/01/24 05:52:20;;;;;;;17.67;13.40;;;;;;;2.19;100.00;104052.13;4910984;28;20047;-82
2023/01/24 05:54:52;;;;;;;19.63;14.00;;;;;;;2.18;100.00;104052.00;4932757;29;20055;-83
2023/01/24 05:57:40;;;;;;;18.38;13.07;;;;;;;2.16;100.00;104057.06;4908687;29;20055;-83
2023/01/24 06:00:17;;;;;;;17.58;13.82;;;;;;;2.15;100.00;104052.63;4939064;28;20059;-83
2023/01/24 06:03:07;;;;;;;19.83;13.88;;;;;;;2.14;100.00;104049.13;4922738;29;20966;-84
2023/01/24 06:05:35;;;;;;;19.48;13.20;;;;;;;2.14;100.00;104046.53;4906220;29;20059;-82
2023/01/24 06:08:03;;;;;;;20.08;14.60;;;;;;;2.16;100.00;104053.56;4885714;29;20062;-83
2023/01/24 06:10:30;;;;;;;18.50;14.13;;;;;;;2.14;100.00;104062.13;4896220;29;20048;-83
2023/01/24 06:13:03;;;;;;;18.73;13.93;;;;;;;2.15;100.00;104055.22;4940081;29;20047;-82
2023/01/24 06:15:33;;;;;;;18.45;14.00;;;;;;;2.11;100.00;104059.25;4915862;29;20047;-82
2023/01/24 06:18:03;;;;;;;17.58;12.68;;;;;;;2.11;100.00;104055.75;4922910;29;20055;-82
2023/01/24 06:20:33;;;;;;;15.55;11.95;;;;;;;2.12;100.00;104060.19;4926327;29;20051;-83
2023/01/24 06:23:04;;;;;;;20.83;13.50;;;;;;;2.12;100.00;104058.50;4911417;29;20410;-82
2023/01/24 06:25:37;;;;;;;18.08;12.88;;;;;;;2.12;100.00;104063.69;4903266;29;20626;-82
2023/01/24 06:28:05;;;;;;;17.90;13.35;;;;;;;2.14;100.00;104061.22;4943267;29;20063;-82
2023/01/24 06:30:32;;;;;;;19.23;14.18;;;;;;;2.13;100.00;104060.28;4929702;29;20062;-83
2023/01/24 06:33:22;;;;;;;19.90;14.70;;;;;;;2.14;100.00;104071.63;4900747;29;20043;-82
2023/01/24 06:36:24;;;;;;;21.45;14.68;;;;;;;2.15;100.00;104068.25;4935747;29;20044;-81
2023/01/24 06:38:53;;;;;;;20.25;15.02;;;;;;;2.14;100.00;104069.03;4894134;29;20058;-81
2023/01/24 06:41:21;;;;;;;21.10;15.18;;;;;;;2.13;100.00;104067.19;4944306;28;20078;-82
2023/01/24 06:43:49;;;;;;;18.73;13.73;;;;;;;2.13;100.00;104065.50;4930042;29;20058;-82
2023/01/24 06:46:16;;;;;;;21.30;14.57;;;;;;;2.11;100.00;104068.75;4917787;29;20039;-82
2023/01/24 06:48:44;;;;;;;21.88;14.75;;;;;;;2.09;100.00;104065.09;4952954;29;20054;-82
2023/01/24 06:51:15;;;;;;;20.23;14.68;;;;;;;2.04;100.00;104077.72;4943064;29;20060;-80
2023/01/24 06:53:43;;;;;;;;;;;;;;;2.03;100.00;104077.56;4929660;28;20058;-82
2023/01/24 06:56:10;;;;;;;22.05;14.10;;;;;;;2.01;100.00;104071.31;4913919;29;20186;-82
2023/01/24 06:58:37;;;;;;;16.20;12.98;;;;;;;1.98;100.00;104078.84;4945941;29;20063;-83
2023/01/24 07:01:05;;;;;;;17.52;12.82;;;;;;;1.97;100.00;104071.78;4927327;29;20063;-79
2023/01/24 07:03:33;;;;;;;20.98;14.25;;;;;;;1.97;100.00;104088.34;4939145;29;20048;-82
2023/01/24 07:06:00;;;;;;;18.65;13.35;;;;;;;1.95;100.00;104083.00;4918056;29;20455;-80
2023/01/24 07:08:27;;;;;;;19.88;13.65;;;;;;;1.95;100.00;104083.00;4914483;28;20501;-80
2023/01/24 07:10:58;;;;;;;17.55;13.13;;;;;;;1.97;100.00;104087.41;4883535;28;20069;-80
2023/01/24 07:13:25;;;;;;;19.88;12.18;;;;;;;1.96;100.00;104091.69;4941521;28;20493;-81
2023/01/24 07:15:52;;;;;;;19.23;12.68;;;;;;;1.97;100.00;104093.53;4940263;29;20051;-81
2023/01/24 07:18:20;;;;;;;15.88;12.55;;;;;;;1.97;100.00;104098.75;4933759;29;20047;-81
2023/01/24 07:20:48;;;;;;;17.73;12.82;;;;;;;2.01;100.00;104102.53;4922856;29;20476;-81
2023/01/24 07:23:23;;;;;;;16.83;10.23;;;;;;;1.99;100.00;104109.28;4947780;29;20055;-80
2023/01/24 07:25:51;;;;;;;14.25;10.95;;;;;;;1.95;100.00;104109.00;4879457;29;20055;-81
2023/01/24 07:28:19;;;;;;;17.45;12.52;;;;;;;1.94;100.00;104120.16;4942989;28;20055;-81
2023/01/24 07:30:48;;;;;;;18.33;12.82;;;;;;;1.94;100.00;104108.84;4928524;29;20051;-81
2023/01/24 07:33:18;;;;;;;17.55;12.73;;;;;;;1.93;100.00;104107.94;4942188;29;20043;-81
2023/01/24 07:35:46;;;;;;;16.90;12.75;;;;;;;1.94;100.00;104117.56;4937555;28;20082;-81
2023/01/24 07:38:13;;;;;;;19.05;12.52;;;;;;;1.95;100.00;104121.09;4940131;28;20055;-81
2023/01/24 07:40:41;;;;;;;15.40;11.30;;;;;;;1.93;100.00;104118.34;4893437;29;20052;-80
2023/01/24 07:43:09;;;;;;;13.27;10.90;;;;;;;1.91;100.00;104127.72;4922788;29;20054;-80
2023/01/24 07:45:38;;;;;;;13.55;10.43;;;;;;;1.91;100.00;104122.50;4928024;29;20460;-80
2023/01/24 07:48:07;;;;;;;12.93;10.52;;;;;;;1.91;100.00;104122.50;4922379;29;20059;-81
2023/01/24 07:50:35;;;;;;;13.82;11.20;;;;;;;1.90;100.00;104118.06;4930097;29;20418;-78
2023/01/24 07:53:03;;;;;;;17.42;10.70;;;;;;;1.89;100.00;104121.47;4945390;29;20051;-79
2023/01/24 07:55:30;;;;;;;15.25;11.05;;;;;;;1.91;100.00;104129.38;4903248;28;20047;-80
2023/01/24 07:58:00;;;;;;;13.30;11.05;;;;;;;1.91;100.00;104135.50;4914699;29;20485;-80
2023/01/24 08:00:28;;;;;;;17.70;12.27;;;;;;;1.94;100.00;104140.97;4905271;29;20059;-80
2023/01/24 08:02:56;;;;;;;17.45;13.05;;;;;;;1.94;100.00;104137.47;4933830;29;20071;-79
2023/01/24 08:05:23;;;;;;;18.25;13.35;;;;;;;1.95;100.00;104136.72;4949742;29;20101;-79
2023/01/24 08:07:53;;;;;;;18.25;13.27;;;;;;;1.95;100.00;104142.81;4933875;29;20051;-80
2023/01/24 08:10:22;;;;;;;19.00;14.13;;;;;;;1.96;100.00;104141.13;4927071;29;20066;-79
2023/01/24 08:12:50;;;;;;;20.50;14.43;;;;;;;1.95;100.00;104129.81;4909667;29;20074;-80
2023/01/24 08:15:18;;;;;;;18.13;12.85;;;;;;;1.94;100.00;104133.16;4923886;29;20051;-79
2023/01/24 08:17:46;;;;;;;19.38;13.55;;;;;;;1.94;100.00;104135.78;4912866;29;20059;-80
2023/01/24 08:20:14;;;;;;;17.52;12.80;;;;;;;1.94;100.00;104153.06;4943786;29;20058;-80
2023/01/24 08:22:41;;;;;;;17.20;12.60;;;;;;;1.92;100.00;104145.13;4927498;29;20058;-81
2023/01/24 08:25:27;;;;;;;15.48;11.50;;;;;;;1.92;100.00;104152.91;4920730;29;20051;-80
2023/01/24 08:27:54;;;;;;;14.82;11.15;;;;;;;1.91;100.00;104155.38;4913441;29;20063;-81
2023/01/24 08:30:21;;;;;;;18.25;12.65;;;;;;;1.91;100.00;104150.19;4906030;28;20063;-80
2023/01/24 08:32:58;;;;;;;15.80;11.48;;;;;;;1.93;100.00;104148.66;4944885;28;20067;-80
2023/01/24 08:35:25;;;;;;;15.30;11.13;;;;;;;1.95;100.00;104158.41;4950503;29;20128;-80
2023/01/24 08:37:53;;;;;;;18.08;12.05;;;;;;;1.95;100.00;104154.91;4934248;29;20059;-81
2023/01/24 08:40:20;;;;;;;17.98;12.38;;;;;;;1.98;100.00;104159.47;4950246;28;20070;-80
2023/01/24 08:42:48;;;;;;;17.13;13.02;;;;;;;1.98;100.00;104156.88;4961514;28;20058;-79
2023/01/24 08:45:16;;;;;;;16.05;12.02;;;;;;;2.01;100.00;104164.97;4923785;28;20050;-78
2023/01/24 08:47:43;;;;;;;21.13;14.20;;;;;;;2.02;100.00;104167.69;4925017;28;20048;-80
2023/01/24 08:50:14;;;;;;;20.90;13.82;;;;;;;2.05;100.00;104161.88;4943267;29;20062;-79
2023/01/24 08:52:42;;;;;;;;;;;;;;;2.07;100.00;104165.50;4941491;28;20089;-79
2023/01/24 08:55:09;;;;;;;16.13;12.55;;;;;;;2.07;100.00;104170.72;4950585;28;19923;-79
2023/01/24 08:57:37;;;;;;;20.88;14.20;;;;;;;2.11;100.00;104170.22;4948706;28;20066;-79
2023/01/24 09:00:05;;;;;;;24.83;15.75;;;;;;;2.12;100.00;104161.66;4915433;28;20046;-80
2023/01/24 09:02:34;;;;;;;21.75;16.15;;;;;;;2.10;100.00;104173.63;4945440;28;20049;-80
2023/01/24 09:05:02;;;;;;;18.60;14.23;;;;;;;2.07;100.00;104166.41;4936733;28;20044;-80
2023/01/24 09:07:30;;;;;;;21.80;14.48;;;;;;;2.09;100.00;104172.66;4933622;29;20058;-80
2023/01/24 09:09:57;;;;;;;21.52;15.88;;;;;;;2.09;100.00;104167.47;4937502;28;20528;-79
2023/01/24 09:12:24;;;;;;;21.75;14.15;;;;;;;2.08;100.00;104164.72;4938191;28;20523;-80
2023/01/24 09:14:52;;;;;;;21.98;16.67;;;;;;;2.11;100.00;104172.81;4921884;28;21318;-80
2023/01/24 09:17:19;;;;;;;21.63;15.52;;;;;;;2.12;100.00;104169.47;4927506;28;20055;-79
2023/01/24 09:19:47;;;;;;;18.13;13.13;;;;;;;2.11;100.00;104165.91;4971294;28;20046;-80
2023/01/24 09:22:15;;;;;;;20.85;14.80;;;;;;;2.13;100.00;104169.56;4955915;28;20043;-80
2023/01/24 09:24:42;;;;;;;20.88;13.98;;;;;;;2.18;100.00;104172.59;4915992;28;20051;-82
2023/01/24 09:27:11;;;;;;;18.60;14.20;;;;;;;2.21;100.00;104172.91;4954271;28;20051;-82
2023/01/24 09:29:38;;;;;;;19.17;13.65;;;;;;;2.21;100.00;104172.91;4953340;28;20046;-81
2023/01/24 09:32:05;;;;;;;21.42;15.02;;;;;;;2.23;100.00;104176.56;4883752;28;20042;-82
2023/01/24 09:34:33;;;;;;;19.45;13.95;;;;;;;2.24;100.00;104173.16;4930905;29;20051;-82
2023/01/24 09:37:00;;;;;;;17.52;13.43;;;;;;;2.25;100.00;104179.25;4945794;28;20055;-81
2023/01/24 09:39:28;;;;;;;16.85;13.05;;;;;;;2.22;100.00;104177.31;4951524;28;20050;-80
2023/01/24 09:42:11;;;;;;;21.02;15.30;;;;;;;2.22;100.00;104166.91;4920345;29;20074;-79
2023/01/24 09:44:48;;;;;;;20.00;14.70;;;;;;;2.24;100.00;104170.56;4928487;29;20056;-82
2023/01/24 09:47:17;;;;;;;19.90;15.02;;;;;;;2.25;100.00;104167.19;4902638;29;20044;-81
2023/01/24 09:49:57;;;;;;;20.00;15.15;;;;;;;2.28;100.00;104166.53;4928721;29;20054;-80
2023/01/24 09:52:35;;;;;;;18.95;14.40;;;;;;;2.26;100.00;104166.41;4931054;29;20062;-79
2023/01/24 09:55:27;;;;;;;16.15;12.63;;;;;;;2.24;100.00;104162.75;4940856;29;20054;-83
2023/01/24 09:58:32;;;;;;;20.83;13.38;;;;;;;2.26;100.00;104170.69;4930781;29;20043;-79
2023/01/24 10:01:08;;;;;;;19.30;15.48;;;;;;;2.25;100.00;104163.66;4898646;29;20052;-81
2023/01/24 10:03:37;;;;;;;17.50;15.13;;;;;;;2.24;100.00;104162.75;4913291;29;20043;-81
2023/01/24 10:06:16;;;;;;;21.30;16.15;;;;;;;2.24;100.00;104167.94;4951653;29;20039;-80
2023/01/24 10:09:12;;;;;;;21.33;16.77;;;;;;;2.24;100.00;104161.84;4931421;29;20059;-80
2023/01/24 10:11:56;;;;;;;21.17;17.30;;;;;;;2.25;100.00;104164.59;4920789;29;20051;-82
2023/01/24 10:14:59;;;;;;;23.15;17.50;;;;;;;2.28;100.00;104156.13;4949391;29;20412;-79
2023/01/24 10:17:45;;;;;;;20.98;15.77;;;;;;;2.30;100.00;104158.09;4897640;29;20047;-81
2023/01/24 10:20:41;;;;;;;17.42;14.45;;;;;;;2.29;100.00;104161.47;4922317;29;20079;-81
2023/01/24 10:23:18;;;;;;;17.95;14.35;;;;;;;2.28;100.00;104157.03;4925818;29;20062;-80
2023/01/24 10:26:01;;;;;;;18.90;15.57;;;;;;;2.30;100.00;104154.56;4931774;29;20039;-82
2023/01/24 10:28:36;;;;;;;20.63;15.60;;;;;;;2.31;100.00;104149.53;4928516;29;20387;-79
2023/01/24 10:31:06;;;;;;;20.90;16.33;;;;;;;2.33;100.00;104152.25;4925890;29;20608;-80
2023/01/24 10:34:10;;;;;;;20.10;15.25;;;;;;;2.33;100.00;104140.16;4882978;28;20039;-82
2023/01/24 10:36:48;;;;;;;22.98;16.80;;;;;;;2.37;100.00;104143.94;4914632;29;20047;-79
2023/01/24 10:39:16;;;;;;;18.02;15.20;;;;;;;2.39;100.00;104142.41;4932878;29;20062;-81
2023/01/24 10:41:43;;;;;;;18.58;15.48;;;;;;;2.37;100.00;104136.16;4941450;28;20047;-81
2023/01/24 10:44:23;;;;;;;17.90;15.25;;;;;;;2.36;100.00;104126.50;4926683;28;20066;-81
2023/01/24 10:47:31;;;;;;;17.95;14.88;;;;;;;2.36;100.00;104125.59;4948200;28;20047;-79
2023/01/24 10:50:11;;;;;;;20.88;16.65;;;;;;;2.39;100.00;104131.09;4942350;28;20051;-79
2023/01/24 10:52:39;;;;;;;19.88;14.73;;;;;;;2.41;100.00;104129.53;4959861;28;20051;-80
2023/01/24 10:55:36;;;;;;;26.35;19.73;;;;;;;2.41;100.00;104133.03;4942192;28;20484;-80
2023/01/24 10:58:22;;;;;;;20.02;15.40;;;;;;;2.42;100.00;104137.47;4956736;28;20047;-80
2023/01/24 11:01:04;;;;;;;21.95;18.10;;;;;;;2.45;100.00;104140.34;4970255;28;20556;-80
2023/01/24 11:03:34;;;;;;;22.77;17.20;;;;;;;2.45;100.00;104126.41;4935674;28;20518;-80
2023/01/24 11:06:02;;;;;;;20.83;16.42;;;;;;;2.49;100.00;104133.72;4965311;28;20047;-81
2023/01/24 11:08:37;;;;;;;20.98;16.85;;;;;;;2.54;100.00;104128.13;4935177;28;20047;-80
2023/01/24 11:11:21;;;;;;;21.70;17.25;;;;;;;2.60;100.00;104132.06;4950972;28;20051;-79
2023/01/24 11:13:55;;;;;;;23.50;16.63;;;;;;;2.63;100.00;104122.84;4958583;28;20815;-80
2023/01/24 11:16:56;;;;;;;24.58;18.42;;;;;;;2.65;100.00;104122.97;4952500;28;20060;-78
2023/01/24 11:19:36;;;;;;;22.45;16.25;;;;;;;2.65;100.00;104121.28;4889271;28;20050;-81
2023/01/24 11:22:24;;;;;;;24.73;17.08;;;;;;;2.68;100.00;104120.63;4952680;28;20047;-81
2023/01/24 11:24:58;;;;;;;22.58;17.25;;;;;;;2.70;100.00;104121.66;4951091;28;20054;-79
2023/01/24 11:27:26;;;;;;;20.48;14.65;;;;;;;2.67;100.00;104122.31;4952808;28;20047;-81
2023/01/24 11:30:11;;;;;;;20.55;15.40;;;;;;;2.65;100.00;104121.28;4927290;29;20063;-82
2023/01/24 11:32:42;;;;;;;19.50;16.10;;;;;;;2.64;100.00;104114.22;4957120;28;20043;-81
2023/01/24 11:35:24;;;;;;;22.02;15.88;;;;;;;2.66;100.00;104122.19;4926745;28;20054;-81
2023/01/24 11:37:58;;;;;;;21.52;16.75;;;;;;;2.67;100.00;104114.50;4936253;28;20043;-80
2023/01/24 11:40:36;;;;;;;20.13;16.40;;;;;;;2.68;100.00;104116.31;4931903;28;20527;-80
2023/01/24 11:43:19;;;;;;;21.90;16.02;;;;;;;2.71;100.00;104110.50;4917902;28;20055;-78
2023/01/24 11:45:53;;;;;;;20.33;16.35;;;;;;;2.71;100.00;104111.41;4926623;29;20494;-79
2023/01/24 11:48:25;;;;;;;22.73;16.63;;;;;;;2.71;100.00;104118.31;4945460;29;20118;-78
2023/01/24 11:51:33;;;;;;;22.65;16.63;;;;;;;2.71;100.00;104114.00;4905003;29;20528;-79
2023/01/24 11:54:32;;;;;;;22.33;16.67;;;;;;;2.68;100.00;104107.59;4905556;29;20063;-80
2023/01/24 11:57:26;;;;;;;22.02;16.15;;;;;;;2.65;100.00;104109.97;4927945;29;20060;-79
2023/01/24 12:00:08;;;;;;;22.50;17.67;;;;;;;2.63;100.00;104107.22;4912167;29;20144;-79
2023/01/24 12:02:39;;;;;;;20.98;17.05;;;;;;;2.64;100.00;104096.00;4946345;29;20697;-78
2023/01/24 12:05:18;;;;;;;21.48;17.00;;;;;;;2.63;100.00;104090.69;4945915;28;20047;-82
2023/01/24 12:07:58;;;;;;;21.95;16.60;;;;;;;2.62;100.00;104088.84;4918881;28;20246;-79
2023/01/24 12:10:37;;;;;;;21.27;15.60;;;;;;;2.61;100.00;104093.16;4938055;29;20536;-80